createdAt,value
2017-06-28T04:00:41.789Z,268
2017-06-28T04:01:07.275Z,320
2017-06-28T04:01:32.782Z,376
2017-06-28T04:01:58.262Z,428
2017-06-28T04:02:23.732Z,468
2017-06-28T04:02:49.205Z,496
2017-06-28T04:03:14.662Z,500
2017-06-28T04:03:40.118Z,488
2017-06-28T04:04:05.629Z,464
2017-06-28T04:04:31.123Z,420
2017-06-28T04:04:56.613Z,372
2017-06-28T04:05:22.074Z,320
2017-06-28T04:05:47.558Z,284
2017-06-28T04:06:13.071Z,252
2017-06-28T04:06:38.556Z,224
2017-06-28T04:07:04.032Z,212
2017-06-28T04:07:29.464Z,204
2017-06-28T04:07:54.950Z,204
2017-06-28T04:08:20.394Z,208
2017-06-28T04:08:45.923Z,208
2017-06-28T04:09:11.454Z,216
2017-06-28T04:09:36.919Z,228
2017-06-28T04:10:02.361Z,248
2017-06-28T04:10:27.895Z,280
2017-06-28T04:10:53.337Z,308
2017-06-28T04:11:18.845Z,332
2017-06-28T04:11:44.305Z,352
2017-06-28T04:12:09.767Z,368
2017-06-28T04:12:35.244Z,376
2017-06-28T04:13:00.710Z,396
2017-06-28T04:13:26.164Z,408
2017-06-28T04:13:51.643Z,424
2017-06-28T04:14:17.127Z,436
2017-06-28T04:14:42.581Z,440
2017-06-28T04:15:08.055Z,444
2017-06-28T04:15:33.530Z,436
2017-06-28T04:15:58.998Z,432
2017-06-28T04:16:24.455Z,424
2017-06-28T04:16:49.928Z,412
2017-06-28T04:17:15.444Z,396
2017-06-28T04:17:40.918Z,384
2017-06-28T04:18:54.755Z,360
2017-06-28T04:19:20.236Z,356
2017-06-28T04:19:45.709Z,356
2017-06-28T04:20:11.168Z,352
2017-06-28T04:20:36.636Z,352
2017-06-28T04:21:02.114Z,348
2017-06-28T04:21:27.596Z,344
2017-06-28T04:21:53.055Z,340
2017-06-28T04:22:18.554Z,344
2017-06-28T04:22:44.033Z,356
2017-06-28T04:23:09.517Z,364
2017-06-28T04:23:34.981Z,388
2017-06-28T04:24:00.440Z,408
2017-06-28T04:24:25.896Z,444
2017-06-28T04:24:51.382Z,472
2017-06-28T04:25:16.863Z,504
2017-06-28T04:25:42.347Z,528
2017-06-28T04:26:07.828Z,556
2017-06-28T04:26:33.287Z,584
2017-06-28T04:26:58.762Z,616
2017-06-28T04:27:24.227Z,652
2017-06-28T04:27:49.684Z,696
2017-06-28T04:28:15.135Z,740
2017-06-28T04:28:40.605Z,792
2017-06-28T04:29:06.724Z,852
2017-06-28T04:29:34.538Z,928
2017-06-28T04:30:00.221Z,1004
2017-06-28T04:30:25.931Z,1072
2017-06-28T04:30:51.850Z,1136
2017-06-28T04:31:17.304Z,1196
2017-06-28T04:31:42.771Z,1240
2017-06-28T04:32:08.228Z,1280
2017-06-28T04:32:33.712Z,1328
2017-06-28T04:32:59.211Z,1364
2017-06-28T04:33:24.671Z,1416
2017-06-28T04:33:50.123Z,1456
2017-06-28T04:34:15.629Z,1496
2017-06-28T04:34:41.528Z,1520
2017-06-28T04:35:08.114Z,1532
2017-06-28T04:35:33.626Z,1532
2017-06-28T04:35:59.102Z,1536
2017-06-28T04:36:24.608Z,1540
2017-06-28T04:36:50.850Z,1540
2017-06-28T04:37:16.013Z,1532
2017-06-28T04:37:41.497Z,1520
2017-06-28T04:38:06.987Z,1520
2017-06-28T04:38:32.424Z,1540
2017-06-28T04:38:57.890Z,1572
2017-06-28T04:39:23.337Z,1612
2017-06-28T04:39:48.818Z,1640
2017-06-28T04:40:14.298Z,1660
2017-06-28T04:40:39.769Z,1672
2017-06-28T04:41:05.215Z,1688
2017-06-28T04:41:30.718Z,1692
2017-06-28T04:41:56.204Z,1704
2017-06-28T04:42:22.453Z,1724
2017-06-28T04:42:48.421Z,1768
2017-06-28T04:43:14.649Z,1808
2017-06-28T04:43:40.669Z,1824
2017-06-28T04:44:06.121Z,1832
2017-06-28T04:44:31.606Z,1816
2017-06-28T04:44:57.042Z,1776
2017-06-28T04:45:22.541Z,1684
2017-06-28T04:45:48.026Z,1572
2017-06-28T04:46:13.499Z,1480
2017-06-28T04:46:39.054Z,1352
2017-06-28T04:47:04.865Z,1224
2017-06-28T04:47:30.960Z,1156
2017-06-28T04:47:56.707Z,1128
2017-06-28T04:48:22.232Z,1132
2017-06-28T04:48:47.758Z,1160
2017-06-28T04:49:13.201Z,1204
2017-06-28T04:49:39.702Z,1276
2017-06-28T04:50:06.321Z,1364
2017-06-28T04:50:31.293Z,1464
2017-06-28T04:50:56.783Z,1564
2017-06-28T04:51:22.518Z,1644
2017-06-28T04:51:48.077Z,1712
2017-06-28T04:52:13.529Z,1776
2017-06-28T04:52:38.966Z,1836
2017-06-28T04:53:04.456Z,1896
2017-06-28T04:53:29.942Z,1948
2017-06-28T04:53:55.368Z,1984
2017-06-28T04:54:20.861Z,2000
2017-06-28T04:54:46.442Z,1988
2017-06-28T04:55:11.846Z,1960
2017-06-28T04:55:37.297Z,1944
2017-06-28T04:56:02.791Z,1928
2017-06-28T04:56:28.266Z,1916
2017-06-28T04:56:53.714Z,1924
2017-06-28T04:57:19.169Z,1928
2017-06-28T04:57:44.648Z,1928
2017-06-28T04:58:10.083Z,1908
2017-06-28T04:58:35.705Z,1864
2017-06-28T04:59:01.201Z,1812
2017-06-28T04:59:26.660Z,1772
2017-06-28T04:59:52.130Z,1740
2017-06-28T05:00:18.117Z,1680
2017-06-28T05:00:43.592Z,1616
2017-06-28T05:01:09.086Z,1584
2017-06-28T05:01:34.552Z,1608
2017-06-28T05:02:00.022Z,1700
2017-06-28T05:02:25.483Z,1888
2017-06-28T05:02:50.987Z,2092
2017-06-28T05:03:16.466Z,2288
2017-06-28T05:03:41.893Z,2416
2017-06-28T05:04:07.361Z,2464
2017-06-28T05:04:32.815Z,2412
2017-06-28T05:04:58.306Z,2348
2017-06-28T05:05:23.780Z,2308
2017-06-28T05:05:49.280Z,2312
2017-06-28T05:06:14.723Z,2348
2017-06-28T05:06:40.188Z,2352
2017-06-28T05:07:05.652Z,2296
2017-06-28T05:07:31.105Z,2216
2017-06-28T05:07:56.585Z,2116
2017-06-28T05:08:22.016Z,2020
2017-06-28T05:08:47.497Z,1948
2017-06-28T05:09:12.933Z,1888
2017-06-28T05:09:38.538Z,1840
2017-06-28T05:10:04.088Z,1800
2017-06-28T05:10:29.560Z,1748
2017-06-28T05:10:55.018Z,1704
2017-06-28T05:11:20.520Z,1656
2017-06-28T05:11:45.995Z,1592
2017-06-28T05:12:11.474Z,1500
2017-06-28T05:12:37.039Z,1408
2017-06-28T05:13:02.368Z,1328
2017-06-28T05:13:28.050Z,1256
2017-06-28T05:13:53.596Z,1188
2017-06-28T05:14:19.025Z,1112
2017-06-28T05:14:44.522Z,1048
2017-06-28T05:15:09.993Z,1008
2017-06-28T05:15:35.789Z,996
2017-06-28T05:16:01.266Z,992
2017-06-28T05:16:26.747Z,1004
2017-06-28T05:16:52.217Z,1036
2017-06-28T05:17:17.670Z,1068
2017-06-28T05:17:43.162Z,1068
2017-06-28T05:18:08.594Z,1048
2017-06-28T05:18:34.127Z,992
2017-06-28T05:18:59.565Z,920
2017-06-28T05:19:25.093Z,852
2017-06-28T05:19:50.467Z,796
2017-06-28T05:20:15.943Z,768
2017-06-28T05:20:41.377Z,796
2017-06-28T05:21:07.130Z,892
2017-06-28T05:21:32.968Z,1028
2017-06-28T05:21:58.515Z,1168
2017-06-28T05:22:24.076Z,1248
2017-06-28T05:22:49.553Z,1240
2017-06-28T05:23:17.077Z,1196
2017-06-28T05:23:42.633Z,1132
2017-06-28T05:24:08.123Z,1052
2017-06-28T05:24:33.582Z,972
2017-06-28T05:24:59.050Z,892
2017-06-28T05:25:24.767Z,832
2017-06-28T05:25:49.987Z,804
2017-06-28T05:26:16.323Z,800
2017-06-28T05:26:41.796Z,848
2017-06-28T05:27:07.263Z,948
2017-06-28T05:27:32.769Z,1116
2017-06-28T05:27:58.204Z,1276
2017-06-28T05:28:23.697Z,1408
2017-06-28T05:28:49.186Z,1508
2017-06-28T05:29:14.750Z,1528
2017-06-28T05:29:40.210Z,1484
2017-06-28T05:30:05.656Z,1408
2017-06-28T05:30:31.138Z,1332
2017-06-28T05:30:56.597Z,1232
2017-06-28T05:31:22.100Z,1132
2017-06-28T05:31:47.576Z,1044
2017-06-28T05:32:13.025Z,952
2017-06-28T05:32:38.488Z,848
2017-06-28T05:33:03.931Z,740
2017-06-28T05:33:29.441Z,636
2017-06-28T05:33:54.885Z,556
2017-06-28T05:34:20.365Z,508
2017-06-28T05:34:45.842Z,480
2017-06-28T05:35:11.297Z,464
2017-06-28T05:35:36.740Z,472
2017-06-28T05:36:02.216Z,500
2017-06-28T05:36:27.703Z,568
2017-06-28T05:36:53.155Z,668
2017-06-28T05:37:18.628Z,780
2017-06-28T05:37:44.052Z,904
2017-06-28T05:38:09.540Z,1036
2017-06-28T05:38:35.017Z,1144
2017-06-28T05:39:00.504Z,1224
2017-06-28T05:39:25.974Z,1300
2017-06-28T05:39:51.479Z,1364
2017-06-28T05:40:16.978Z,1400
2017-06-28T05:40:42.453Z,1428
2017-06-28T05:41:07.923Z,1472
2017-06-28T05:41:33.416Z,1524
2017-06-28T05:41:58.897Z,1556
2017-06-28T05:42:24.385Z,1568
2017-06-28T05:42:49.851Z,1568
2017-06-28T05:43:15.343Z,1568
2017-06-28T05:43:40.811Z,1576
2017-06-28T05:44:06.294Z,1596
2017-06-28T05:44:31.757Z,1648
2017-06-28T05:44:57.270Z,1720
2017-06-28T05:45:22.724Z,1844
2017-06-28T05:45:48.198Z,1988
2017-06-28T05:46:13.675Z,2120
2017-06-28T05:46:39.165Z,2224
2017-06-28T05:47:04.635Z,2308
2017-06-28T05:47:30.124Z,2356
2017-06-28T05:47:55.628Z,2368
2017-06-28T05:48:21.085Z,2368
2017-06-28T05:48:46.550Z,2384
2017-06-28T05:49:12.051Z,2372
2017-06-28T05:49:37.512Z,2328
2017-06-28T05:50:03.060Z,2328
2017-06-28T05:50:28.529Z,2356
2017-06-28T05:50:54.014Z,2324
2017-06-28T05:51:19.628Z,2224
2017-06-28T05:51:45.110Z,2064
2017-06-28T05:52:10.597Z,1868
2017-06-28T05:52:36.095Z,1664
2017-06-28T05:53:01.545Z,1468
2017-06-28T05:53:27.031Z,1292
2017-06-28T05:53:52.488Z,1128
2017-06-28T05:54:17.985Z,1004
2017-06-28T05:54:43.440Z,932
2017-06-28T05:55:08.911Z,912
2017-06-28T05:55:34.415Z,928
2017-06-28T05:55:59.881Z,948
2017-06-28T05:56:25.332Z,984
2017-06-28T05:56:50.808Z,1028
2017-06-28T05:57:16.300Z,1080
2017-06-28T05:57:41.798Z,1120
2017-06-28T05:58:07.290Z,1136
2017-06-28T05:58:32.748Z,1160
2017-06-28T05:58:58.217Z,1192
2017-06-28T05:59:23.688Z,1192
2017-06-28T05:59:49.151Z,1164
2017-06-28T06:00:14.609Z,1120
2017-06-28T06:00:40.080Z,1096
2017-06-28T06:01:05.540Z,1100
2017-06-28T06:01:31.081Z,1116
2017-06-28T06:01:56.616Z,1148
2017-06-28T06:02:22.097Z,1196
2017-06-28T06:02:47.633Z,1220
2017-06-28T06:03:13.124Z,1236
2017-06-28T06:03:38.559Z,1240
2017-06-28T06:04:04.023Z,1248
2017-06-28T06:04:29.527Z,1260
2017-06-28T06:05:53.018Z,1352
2017-06-28T06:06:18.500Z,1412
2017-06-28T06:06:43.958Z,1496
2017-06-28T06:07:09.449Z,1584
2017-06-28T06:07:34.967Z,1652
2017-06-28T06:08:58.884Z,2020
2017-06-28T06:09:24.341Z,2124
2017-06-28T06:09:49.855Z,2208
2017-06-28T06:10:15.341Z,2368
2017-06-28T06:10:40.780Z,2600
2017-06-28T06:11:06.237Z,2812
2017-06-28T06:11:31.719Z,3052
2017-06-28T06:11:57.221Z,3232
2017-06-28T06:12:22.711Z,3368
2017-06-28T06:12:48.320Z,3372
2017-06-28T06:13:13.769Z,3324
2017-06-28T06:13:39.242Z,3256
2017-06-28T06:14:04.703Z,3180
2017-06-28T06:14:30.194Z,3124
2017-06-28T06:14:55.667Z,3108
2017-06-28T06:15:21.129Z,3112
2017-06-28T06:15:46.605Z,3168
2017-06-28T06:16:12.065Z,3240
2017-06-28T06:16:37.533Z,3376
2017-06-28T06:17:02.993Z,3540
2017-06-28T06:17:28.487Z,3696
2017-06-28T06:17:53.952Z,3860
2017-06-28T06:18:19.403Z,4036
2017-06-28T06:18:44.900Z,4252
2017-06-28T06:19:10.376Z,4508
2017-06-28T06:19:35.844Z,4752
2017-06-28T06:20:01.307Z,4960
2017-06-28T06:20:26.760Z,5140
2017-06-28T06:20:52.246Z,5312
2017-06-28T06:21:17.712Z,5444
2017-06-28T06:21:43.192Z,5548
2017-06-28T06:22:08.672Z,5628
2017-06-28T06:22:34.147Z,5676
2017-06-28T06:22:59.633Z,5696
2017-06-28T06:23:25.085Z,5700
2017-06-28T06:23:50.559Z,5704
2017-06-28T06:24:16.024Z,5692
2017-06-28T06:24:41.520Z,5672
2017-06-28T06:25:06.963Z,5664
2017-06-28T06:25:32.444Z,5636
2017-06-28T06:25:57.909Z,5580
2017-06-28T06:26:23.393Z,5576
2017-06-28T06:26:48.846Z,5540
2017-06-28T06:27:14.309Z,5528
2017-06-28T06:27:39.854Z,5508
2017-06-28T06:28:05.312Z,5440
2017-06-28T06:28:30.805Z,5384
2017-06-28T06:28:56.276Z,5228
2017-06-28T06:29:21.754Z,5020
2017-06-28T06:29:47.193Z,4808
2017-06-28T06:30:12.676Z,4552
2017-06-28T06:30:38.141Z,4284
2017-06-28T06:31:03.636Z,4000
2017-06-28T06:31:29.134Z,3732
2017-06-28T06:31:54.631Z,3460
2017-06-28T06:32:20.109Z,3248
2017-06-28T06:32:45.551Z,3056
2017-06-28T06:33:11.037Z,2888
2017-06-28T06:33:36.503Z,2764
2017-06-28T06:34:01.957Z,2692
2017-06-28T06:34:27.439Z,2652
2017-06-28T06:34:52.942Z,2660
2017-06-28T06:35:18.390Z,2708
2017-06-28T06:35:43.859Z,2788
2017-06-28T06:36:09.329Z,2804
2017-06-28T06:36:34.827Z,2864
2017-06-28T06:37:00.312Z,2928
2017-06-28T06:37:25.791Z,2952
2017-06-28T06:37:51.272Z,2828
2017-06-28T06:38:16.724Z,2800
2017-06-28T06:38:42.209Z,2696
2017-06-28T06:39:07.675Z,2608
2017-06-28T06:39:33.157Z,2348
2017-06-28T06:39:58.638Z,2244
2017-06-28T06:40:24.137Z,2200
2017-06-28T06:40:49.594Z,2172
2017-06-28T06:41:15.052Z,2144
2017-06-28T06:41:40.505Z,2108
2017-06-28T06:42:06.049Z,2148
2017-06-28T06:42:31.590Z,2200
2017-06-28T06:42:57.074Z,2256
2017-06-28T06:43:22.540Z,2308
2017-06-28T06:43:48.051Z,2432
2017-06-28T06:44:13.534Z,2672
2017-06-28T06:44:39.007Z,2944
2017-06-28T06:45:04.459Z,3232
2017-06-28T06:45:29.944Z,3640
2017-06-28T06:45:55.443Z,4112
2017-06-28T06:46:20.882Z,4620
2017-06-28T06:46:46.492Z,5112
2017-06-28T06:47:11.963Z,5448
2017-06-28T06:47:37.440Z,5768
2017-06-28T06:48:02.917Z,6028
2017-06-28T06:48:28.396Z,6152
2017-06-28T06:48:53.893Z,6140
2017-06-28T06:49:19.372Z,6156
2017-06-28T06:49:44.853Z,6136
2017-06-28T06:50:10.315Z,6088
2017-06-28T06:50:35.810Z,6092
2017-06-28T06:51:01.305Z,5980
2017-06-28T06:51:26.802Z,5776
2017-06-28T06:51:52.302Z,5396
2017-06-28T06:52:17.789Z,4852
2017-06-28T06:52:43.243Z,4432
2017-06-28T06:53:08.727Z,4292
2017-06-28T06:53:34.235Z,4312
2017-06-28T06:53:59.680Z,4448
2017-06-28T06:54:25.235Z,4632
2017-06-28T06:54:50.752Z,4788
2017-06-28T06:55:16.475Z,4840
2017-06-28T06:55:41.928Z,4824
2017-06-28T06:56:07.381Z,4808
2017-06-28T06:56:32.861Z,4784
2017-06-28T06:56:58.349Z,4772
2017-06-28T06:57:23.798Z,4756
2017-06-28T06:57:49.277Z,4748
2017-06-28T06:58:14.759Z,4752
2017-06-28T06:58:40.245Z,4744
2017-06-28T06:59:05.709Z,4728
2017-06-28T06:59:31.216Z,4720
2017-06-28T06:59:56.774Z,4716
2017-06-28T07:00:22.221Z,4772
2017-06-28T07:00:47.703Z,4880
2017-06-28T07:01:13.202Z,5056
2017-06-28T07:01:38.714Z,5248
2017-06-28T07:02:04.199Z,5448
2017-06-28T07:02:29.663Z,5596
2017-06-28T07:02:55.140Z,5732
2017-06-28T07:03:20.659Z,5844
2017-06-28T07:03:46.088Z,5960
2017-06-28T07:04:11.577Z,6052
2017-06-28T07:04:37.267Z,6152
2017-06-28T07:05:02.788Z,6252
2017-06-28T07:05:28.256Z,6328
2017-06-28T07:05:53.726Z,6416
2017-06-28T07:06:19.209Z,6536
2017-06-28T07:06:44.715Z,6624
2017-06-28T07:07:10.190Z,6732
2017-06-28T07:07:35.692Z,6868
2017-06-28T07:08:01.195Z,7008
2017-06-28T07:08:26.688Z,7124
2017-06-28T07:08:52.284Z,7232
2017-06-28T07:09:17.786Z,7316
2017-06-28T07:09:43.253Z,7352
2017-06-28T07:10:08.840Z,7340
2017-06-28T07:10:34.300Z,7224
2017-06-28T07:10:59.774Z,7124
2017-06-28T07:11:25.265Z,7020
2017-06-28T07:11:50.709Z,6972
2017-06-28T07:12:16.220Z,7100
2017-06-28T07:12:41.678Z,7220
2017-06-28T07:13:07.148Z,7232
2017-06-28T07:13:32.684Z,7060
2017-06-28T07:13:58.151Z,6756
2017-06-28T07:14:23.647Z,6744
2017-06-28T07:14:49.361Z,6640
2017-06-28T07:15:14.964Z,6364
2017-06-28T07:15:40.417Z,5872
2017-06-28T07:16:05.936Z,5464
2017-06-28T07:16:31.436Z,5100
2017-06-28T07:16:56.912Z,4684
2017-06-28T07:17:22.437Z,4312
2017-06-28T07:17:47.922Z,4084
2017-06-28T07:18:13.382Z,4012
2017-06-28T07:18:38.959Z,3852
2017-06-28T07:19:04.346Z,3652
2017-06-28T07:19:29.803Z,3732
2017-06-28T07:19:55.285Z,4216
2017-06-28T07:20:20.848Z,4884
2017-06-28T07:20:46.307Z,5332
2017-06-28T07:21:11.767Z,6080
2017-06-28T07:21:37.227Z,6776
2017-06-28T07:22:02.696Z,7312
2017-06-28T07:22:28.149Z,7380
2017-06-28T07:22:53.645Z,7644
2017-06-28T07:23:19.119Z,7848
2017-06-28T07:23:44.578Z,8052
2017-06-28T07:24:10.034Z,8204
2017-06-28T07:24:35.487Z,8336
2017-06-28T07:25:00.977Z,8424
2017-06-28T07:25:26.467Z,8468
2017-06-28T07:25:51.968Z,8420
2017-06-28T07:26:17.429Z,8300
2017-06-28T07:26:42.896Z,8184
2017-06-28T07:27:08.389Z,7844
2017-06-28T07:27:33.849Z,7424
2017-06-28T07:27:59.311Z,7564
2017-06-28T07:28:24.813Z,6604
2017-06-28T07:28:50.287Z,5892
2017-06-28T07:29:15.759Z,5204
2017-06-28T07:29:41.229Z,4628
2017-06-28T07:30:06.737Z,4204
2017-06-28T07:30:32.197Z,3952
2017-06-28T07:30:57.690Z,3864
2017-06-28T07:31:23.177Z,3744
2017-06-28T07:31:48.655Z,3624
2017-06-28T07:32:14.135Z,3892
2017-06-28T07:32:39.596Z,4348
2017-06-28T07:33:05.085Z,4700
2017-06-28T07:33:30.555Z,4996
2017-06-28T07:33:56.024Z,5172
2017-06-28T07:34:21.529Z,5480
2017-06-28T07:34:47.033Z,5464
2017-06-28T07:35:12.567Z,5284
2017-06-28T07:35:38.052Z,5000
2017-06-28T07:36:03.550Z,4660
2017-06-28T07:36:29.009Z,4584
2017-06-28T07:36:54.484Z,5044
2017-06-28T07:37:19.987Z,5700
2017-06-28T07:37:45.420Z,6292
2017-06-28T07:38:10.928Z,6704
2017-06-28T07:38:36.418Z,6888
2017-06-28T07:39:01.886Z,6844
2017-06-28T07:39:27.375Z,6756
2017-06-28T07:39:52.787Z,6748
2017-06-28T07:40:18.275Z,6868
2017-06-28T07:40:43.753Z,7084
2017-06-28T07:41:09.172Z,7260
2017-06-28T07:41:34.698Z,7432
2017-06-28T07:42:00.162Z,7492
2017-06-28T07:42:25.645Z,7464
2017-06-28T07:42:51.092Z,7368
2017-06-28T07:43:16.586Z,7088
2017-06-28T07:43:42.065Z,6652
2017-06-28T07:44:07.581Z,6076
2017-06-28T07:44:33.112Z,5580
2017-06-28T07:44:58.584Z,5252
2017-06-28T07:45:24.070Z,5056
2017-06-28T07:45:49.538Z,5064
2017-06-28T07:46:14.978Z,5172
2017-06-28T07:46:40.447Z,5156
2017-06-28T07:47:05.968Z,4928
2017-06-28T07:47:31.443Z,4624
2017-06-28T07:47:56.908Z,4364
2017-06-28T07:48:22.369Z,4384
2017-06-28T07:48:47.876Z,4796
2017-06-28T07:49:13.349Z,5156
2017-06-28T07:49:38.844Z,5472
2017-06-28T07:50:04.309Z,5664
2017-06-28T07:50:29.849Z,5708
2017-06-28T07:50:55.316Z,5600
2017-06-28T07:51:20.860Z,5428
2017-06-28T07:51:46.343Z,4996
2017-06-28T07:52:11.834Z,4668
2017-06-28T07:52:37.305Z,4528
2017-06-28T07:53:02.814Z,4564
2017-06-28T07:53:28.342Z,4448
2017-06-28T07:53:53.850Z,4136
2017-06-28T07:54:19.337Z,3908
2017-06-28T07:54:44.804Z,3972
2017-06-28T07:55:10.268Z,4148
2017-06-28T07:55:35.758Z,4356
2017-06-28T07:56:01.212Z,4444
2017-06-28T07:56:26.694Z,4540
2017-06-28T07:56:52.141Z,4688
2017-06-28T07:57:17.616Z,4736
2017-06-28T07:57:43.081Z,4552
2017-06-28T07:58:08.588Z,4656
2017-06-28T07:59:32.061Z,6612
2017-06-28T07:59:57.529Z,7224
2017-06-28T08:00:23.015Z,7796
2017-06-28T08:00:48.454Z,8264
2017-06-28T08:01:13.955Z,8548
2017-06-28T08:01:39.426Z,8732
2017-06-28T08:02:04.901Z,8888
2017-06-28T08:02:30.406Z,9008
2017-06-28T08:02:55.884Z,9092
2017-06-28T08:03:21.380Z,9172
2017-06-28T08:03:46.832Z,9336
2017-06-28T08:04:12.337Z,9472
2017-06-28T08:04:37.794Z,9516
2017-06-28T08:05:03.297Z,9476
2017-06-28T08:05:28.765Z,9408
2017-06-28T08:05:54.251Z,9472
2017-06-28T08:06:19.746Z,9592
2017-06-28T08:06:45.237Z,9552
2017-06-28T08:07:10.701Z,9496
2017-06-28T08:07:36.193Z,9484
2017-06-28T08:08:01.673Z,9472
2017-06-28T08:08:27.119Z,9344
2017-06-28T08:08:52.619Z,9164
2017-06-28T08:09:18.084Z,8888
2017-06-28T08:09:43.565Z,8564
2017-06-28T08:10:09.055Z,8252
2017-06-28T08:10:34.498Z,7876
2017-06-28T08:10:59.941Z,7556
2017-06-28T08:11:25.387Z,7280
2017-06-28T08:11:50.901Z,7144
2017-06-28T08:12:16.411Z,7016
2017-06-28T08:12:41.868Z,6944
2017-06-28T08:13:07.339Z,7012
2017-06-28T08:13:32.837Z,7096
2017-06-28T08:13:58.301Z,7056
2017-06-28T08:14:23.736Z,6972
2017-06-28T08:14:49.245Z,6940
2017-06-28T08:15:14.686Z,6968
2017-06-28T08:15:40.193Z,7004
2017-06-28T08:16:05.662Z,7088
2017-06-28T08:16:31.153Z,7224
2017-06-28T08:16:56.626Z,7204
2017-06-28T08:17:22.090Z,7144
2017-06-28T08:17:47.591Z,7124
2017-06-28T08:18:13.082Z,7064
2017-06-28T08:18:38.548Z,7044
2017-06-28T08:19:04.031Z,6876
2017-06-28T08:19:29.532Z,6532
2017-06-28T08:19:55.011Z,6232
2017-06-28T08:20:20.530Z,6056
2017-06-28T08:20:45.921Z,6456
2017-06-28T08:21:11.389Z,6700
2017-06-28T08:21:36.923Z,6792
2017-06-28T08:22:02.433Z,7080
2017-06-28T08:22:27.885Z,7380
2017-06-28T08:22:53.353Z,7728
2017-06-28T08:23:18.816Z,7944
2017-06-28T08:23:44.282Z,7848
2017-06-28T08:24:09.798Z,7696
2017-06-28T08:24:35.252Z,7524
2017-06-28T08:25:00.711Z,7500
2017-06-28T08:25:26.189Z,7444
2017-06-28T08:25:51.690Z,7468
2017-06-28T08:26:17.186Z,7512
2017-06-28T08:26:42.650Z,7420
2017-06-28T08:27:08.134Z,7024
2017-06-28T08:27:33.616Z,6524
2017-06-28T08:27:59.129Z,6264
2017-06-28T08:28:24.641Z,6008
2017-06-28T08:28:50.108Z,5608
2017-06-28T08:29:15.574Z,5400
2017-06-28T08:29:41.044Z,5128
2017-06-28T08:30:06.561Z,4900
2017-06-28T08:30:32.047Z,4908
2017-06-28T08:30:57.540Z,4784
2017-06-28T08:31:23.033Z,4728
2017-06-28T08:31:48.527Z,4744
2017-06-28T08:32:13.967Z,4628
2017-06-28T08:32:39.449Z,4428
2017-06-28T08:33:04.967Z,4312
2017-06-28T08:33:30.461Z,4304
2017-06-28T08:33:55.946Z,4428
2017-06-28T08:34:21.412Z,4604
2017-06-28T08:34:46.891Z,4812
2017-06-28T08:35:12.398Z,5004
2017-06-28T08:35:37.916Z,5128
2017-06-28T08:36:03.394Z,5124
2017-06-28T08:36:28.801Z,5032
2017-06-28T08:36:54.268Z,4928
2017-06-28T08:37:19.735Z,4868
2017-06-28T08:37:45.233Z,4816
2017-06-28T08:38:10.726Z,4776
2017-06-28T08:38:36.214Z,4740
2017-06-28T08:39:01.702Z,4760
2017-06-28T08:39:27.202Z,4756
2017-06-28T08:39:52.687Z,4780
2017-06-28T08:40:18.169Z,4844
2017-06-28T08:40:43.638Z,4956
2017-06-28T08:41:09.140Z,5080
2017-06-28T08:41:34.617Z,5192
2017-06-28T08:42:00.078Z,5324
2017-06-28T08:42:25.552Z,5428
2017-06-28T08:42:51.100Z,5452
2017-06-28T08:43:16.552Z,5492
2017-06-28T08:43:42.073Z,5536
2017-06-28T08:44:07.565Z,5608
2017-06-28T08:44:33.081Z,5804
2017-06-28T08:44:58.511Z,5896
2017-06-28T08:45:24.002Z,6052
2017-06-28T08:45:49.458Z,6096
2017-06-28T08:46:14.952Z,5848
2017-06-28T08:46:40.425Z,5816
2017-06-28T08:47:05.913Z,6108
2017-06-28T08:47:31.408Z,6164
2017-06-28T08:47:56.901Z,6252
2017-06-28T08:48:22.356Z,6364
2017-06-28T08:48:47.850Z,6500
2017-06-28T08:49:13.366Z,6748
2017-06-28T08:49:38.815Z,6720
2017-06-28T08:50:04.330Z,6748
2017-06-28T08:50:29.833Z,7184
2017-06-28T08:50:55.341Z,7580
2017-06-28T08:51:20.826Z,7384
2017-06-28T08:51:46.265Z,7136
2017-06-28T08:52:11.748Z,6908
2017-06-28T08:52:37.226Z,7072
2017-06-28T08:53:02.692Z,7408
2017-06-28T08:53:28.171Z,7504
2017-06-28T08:53:53.630Z,7496
2017-06-28T08:54:19.083Z,7556
2017-06-28T08:54:44.537Z,7452
2017-06-28T08:55:10.022Z,7356
2017-06-28T08:55:35.486Z,7288
2017-06-28T08:56:00.989Z,7252
2017-06-28T08:56:26.442Z,7212
2017-06-28T08:56:51.940Z,7292
2017-06-28T08:57:17.405Z,7376
2017-06-28T08:57:42.903Z,7388
2017-06-28T08:58:08.396Z,7356
2017-06-28T08:58:33.882Z,7436
2017-06-28T08:58:59.346Z,7720
2017-06-28T08:59:24.787Z,8100
2017-06-28T08:59:50.270Z,8424
2017-06-28T09:00:15.698Z,8588
2017-06-28T09:00:41.175Z,8576
2017-06-28T09:01:06.636Z,8580
2017-06-28T09:01:32.108Z,8664
2017-06-28T09:01:57.612Z,8808
2017-06-28T09:02:23.065Z,8912
2017-06-28T09:02:48.560Z,8928
2017-06-28T09:03:14.039Z,8924
2017-06-28T09:03:39.533Z,8944
2017-06-28T09:04:05.003Z,8996
2017-06-28T09:04:30.497Z,9212
2017-06-28T09:04:55.966Z,9420
2017-06-28T09:05:21.442Z,9428
2017-06-28T09:05:46.878Z,8976
2017-06-28T09:06:12.364Z,8448
2017-06-28T09:06:37.888Z,8288
2017-06-28T09:07:03.354Z,8308
2017-06-28T09:07:28.804Z,8300
2017-06-28T09:07:54.258Z,8152
2017-06-28T09:08:19.741Z,8312
2017-06-28T09:08:45.240Z,8840
2017-06-28T09:09:10.769Z,8972
2017-06-28T09:09:36.204Z,8508
2017-06-28T09:10:01.687Z,7940
2017-06-28T09:10:27.162Z,8012
2017-06-28T09:10:52.638Z,8364
2017-06-28T09:11:18.140Z,8664
2017-06-28T09:11:43.593Z,8724
2017-06-28T09:12:09.074Z,8412
2017-06-28T09:12:34.544Z,8360
2017-06-28T09:12:59.989Z,8636
2017-06-28T09:13:25.479Z,9012
2017-06-28T09:13:50.946Z,9172
2017-06-28T09:14:16.415Z,9220
2017-06-28T09:14:41.909Z,9132
2017-06-28T09:15:07.388Z,8832
2017-06-28T09:15:32.883Z,8304
2017-06-28T09:15:58.413Z,7620
2017-06-28T09:16:23.907Z,7016
2017-06-28T09:16:49.399Z,6916
2017-06-28T09:17:14.787Z,7488
2017-06-28T09:17:40.340Z,8332
2017-06-28T09:18:05.895Z,8980
2017-06-28T09:18:31.353Z,9552
2017-06-28T09:18:56.843Z,10140
2017-06-28T09:19:22.318Z,10484
2017-06-28T09:19:47.790Z,10148
2017-06-28T09:20:13.297Z,9840
2017-06-28T09:20:38.736Z,9936
2017-06-28T09:21:04.196Z,10376
2017-06-28T09:21:29.690Z,9956
2017-06-28T09:21:55.197Z,9760
2017-06-28T09:22:20.668Z,9620
2017-06-28T09:22:46.139Z,9548
2017-06-28T09:23:11.588Z,9332
2017-06-28T09:23:37.073Z,9108
2017-06-28T09:24:02.561Z,9728
2017-06-28T09:24:28.007Z,11020
2017-06-28T09:24:53.506Z,12104
2017-06-28T09:25:18.960Z,12136
2017-06-28T09:25:44.460Z,12128
2017-06-28T09:26:09.912Z,11568
2017-06-28T09:26:35.395Z,10328
2017-06-28T09:27:00.819Z,9064
2017-06-28T09:27:26.315Z,8996
2017-06-28T09:27:51.852Z,9072
2017-06-28T09:28:17.326Z,8928
2017-06-28T09:28:42.822Z,8944
2017-06-28T09:29:08.335Z,9500
2017-06-28T09:29:33.782Z,9296
2017-06-28T09:29:59.266Z,9448
2017-06-28T09:30:24.727Z,9980
2017-06-28T09:30:50.202Z,10544
2017-06-28T09:31:15.663Z,10844
2017-06-28T09:31:41.117Z,10044
2017-06-28T09:32:06.593Z,9124
2017-06-28T09:32:32.086Z,7552
2017-06-28T09:32:57.600Z,6488
2017-06-28T09:33:23.088Z,6164
2017-06-28T09:33:48.591Z,6324
2017-06-28T09:34:14.091Z,6388
2017-06-28T09:34:39.570Z,6836
2017-06-28T09:35:05.060Z,7512
2017-06-28T09:35:30.536Z,7720
2017-06-28T09:35:56.001Z,7396
2017-06-28T09:36:21.493Z,7396
2017-06-28T09:36:46.962Z,7876
2017-06-28T09:37:12.475Z,8600
2017-06-28T09:37:37.957Z,9240
2017-06-28T09:38:03.432Z,10072
2017-06-28T09:38:28.913Z,10200
2017-06-28T09:38:54.421Z,10032
2017-06-28T09:39:19.909Z,10180
2017-06-28T09:39:45.397Z,10056
2017-06-28T09:40:10.855Z,9888
2017-06-28T09:40:36.360Z,10144
2017-06-28T09:41:01.827Z,9516
2017-06-28T09:41:27.313Z,8740
2017-06-28T09:41:52.797Z,8476
2017-06-28T09:42:18.287Z,8712
2017-06-28T09:42:43.779Z,8508
2017-06-28T09:43:09.301Z,8840
2017-06-28T09:43:34.807Z,8520
2017-06-28T09:44:00.306Z,8476
2017-06-28T09:44:25.814Z,8392
2017-06-28T09:44:51.278Z,8368